Wetterdaten: aktuell Dienstag, 22.04.2014 03:48
Datum Zeit Temperatur Feuchte Luftdruck Regen Wind Richtung Richtung Taupunkt Windchill
22.04.2014 03:48 7,7 C 88 % 1005,9 hPa 0,0 l/m 7,9 km/h (2 Bft) O22.5 80 5,8 C 6,3 C
22.04.2014 02:48 7,8 C 86 % 1005,9 hPa 0,0 l/m 6,1 km/h (2 Bft) O22.5 90 5,6 C 6,9 C
22.04.2014 01:48 8,8 C 85 % 1005,8 hPa 0,0 l/m 6,3 km/h (2 Bft) O-NO22.5 60 6,4 C 8,0 C
22.04.2014 00:48 9,0 C 83 % 1005,8 hPa 0,0 l/m 6,3 km/h (2 Bft) NO22.5 50 6,3 C 8,2 C
21.04.2014 23:48 9,8 C 82 % 1004,7 hPa 0,0 l/m 4,2 km/h (1 Bft) NO 40 6,9 C 9,8 C
21.04.2014 22:48 10,3 C 80 % 1004,6 hPa 0,0 l/m 5,1 km/h (1 Bft) N-NO22.5 15 7,0 C 10,3 C
21.04.2014 21:48 11,0 C 77 % 1004,6 hPa 0,0 l/m 4,9 km/h (1 Bft) O-SO22.5 120 7,1 C 11,0 C
21.04.2014 20:48 11,6 C 74 % 1003,5 hPa 0,0 l/m 17,5 km/h (3 Bft) NO67.5 45 7,1 C 11,6 C
21.04.2014 19:48 13,6 C 66 % 1003,3 hPa 0,0 l/m 13,3 km/h (3 Bft) NO22.5 35 7,4 C 13,6 C
21.04.2014 18:48 14,1 C 68 % 1003,3 hPa 0,0 l/m 7,5 km/h (2 Bft) O45 85 8,3 C 14,1 C
21.04.2014 17:48 14,1 C 67 % 1002,3 hPa 0,0 l/m 10,8 km/h (2 Bft) NO45 35 8,1 C 14,1 C
21.04.2014 16:48 14,6 C 69 % 1003,3 hPa 0,0 l/m 20,7 km/h (4 Bft) NO22.5 45 9,0 C 14,6 C
21.04.2014 15:48 13,9 C 75 % 1003,3 hPa 0,0 l/m 23,3 km/h (4 Bft) N-NO45 25 9,5 C 13,9 C
21.04.2014 14:48 12,3 C 82 % 1003,5 hPa 0,0 l/m 20,8 km/h (4 Bft) N45 5 9,3 C 12,3 C
21.04.2014 13:48 12,0 C 80 % 1003,5 hPa 0,0 l/m 22,8 km/h (4 Bft) N-NO67.5 25 8,7 C 12,0 C
21.04.2014 12:48 11,9 C 80 % 1003,5 hPa 0,0 l/m 22,5 km/h (4 Bft) N-NO67.5 25 8,6 C 11,9 C
21.04.2014 11:48 11,5 C 76 % 1003,5 hPa 0,0 l/m 29,8 km/h (5 Bft) N-NO45 15 7,4 C 11,5 C
21.04.2014 10:48 12,4 C 70 % 1004,5 hPa 0,0 l/m 17,2 km/h (3 Bft) NO45 35 7,1 C 12,4 C
21.04.2014 09:48 12,5 C 70 % 1004,5 hPa 0,0 l/m 6,2 km/h (2 Bft) N-NO22.5 15 7,2 C 12,5 C
21.04.2014 08:48 11,5 C 72 % 1004,5 hPa 0,0 l/m 9,8 km/h (2 Bft) N-NO22.5 30 6,6 C 11,5 C
21.04.2014 07:48 10,4 C 72 % 1004,6 hPa 0,0 l/m 12,0 km/h (2 Bft) N-NO45 30 5,6 C 10,4 C
21.04.2014 06:48 9,6 C 71 % 1004,7 hPa 0,0 l/m 11,1 km/h (2 Bft) N22.5 360 4,6 C 8,0 C
21.04.2014 05:48 9,8 C 69 % 1004,7 hPa 729,0 l/m 9,8 km/h (2 Bft) N-NO 30 4,4 C 8,4 C
21.04.2014 04:45 14,7 C 55 % 1006,3 hPa 0,0 l/m 13,8 km/h (3 Bft) NO22.5 40 5,8 C 14,7 C
21.04.2014 04:00 15,0 C 54 % 1005,3 hPa 0,0 l/m 8,4 km/h (2 Bft) O-NO22.5 60 5,8 C 15,0 C
_ Min-Zeit 03:06 04:00 08:51 - 09:12 - - 05:30 03:45
Minimum _ 7,6 C 54 % 902,1 hPa - 0,0 km/h (0 Bft) - - 4,3 C 5,5 C
_ Max-Zeit 04:00 03:24 05:06 05:06 05:03 - - 16:36 04:00
Maximum _ 15,0 C 88 % 1006,4 hPa 702,4 l/m 195,1 km/h
N-NO (16 Bft)
- - 9,8 C 15,0 C
Durchschnitt _ 11,8 C 73 % 1004,1 hPa #729,0 l/m 12,6 km/h (3 Bft) NO - 7,0 C 11,6 C